createdAt,value
2017-10-04T00:00:39.245Z,0
2017-10-04T00:01:19.824Z,0
2017-10-04T00:02:00.397Z,0
2017-10-04T00:02:40.983Z,0
2017-10-04T00:03:21.556Z,0
2017-10-04T00:04:02.129Z,0
2017-10-04T00:04:42.693Z,0
2017-10-04T00:05:23.261Z,0
2017-10-04T00:06:18.413Z,0
2017-10-04T00:06:58.992Z,0
2017-10-04T00:07:39.560Z,0
2017-10-04T00:08:20.151Z,0
2017-10-04T00:09:00.729Z,0
2017-10-04T00:09:41.320Z,0
2017-10-04T00:10:21.897Z,0
2017-10-04T00:11:02.475Z,0
2017-10-04T00:11:43.057Z,0
2017-10-04T00:12:23.630Z,0
2017-10-04T00:13:04.212Z,0
2017-10-04T00:13:44.790Z,0
2017-10-04T00:14:25.364Z,0
2017-10-04T00:15:05.933Z,0
2017-10-04T00:15:46.521Z,0
2017-10-04T00:16:27.102Z,0
2017-10-04T00:17:07.680Z,0
2017-10-04T00:17:48.254Z,0
2017-10-04T00:18:28.833Z,0
2017-10-04T00:19:09.405Z,0
2017-10-04T00:19:49.982Z,0
2017-10-04T00:20:30.559Z,0
2017-10-04T00:21:11.138Z,0
2017-10-04T00:21:51.713Z,0
2017-10-04T00:22:32.288Z,0
2017-10-04T00:23:12.875Z,0
2017-10-04T00:23:53.446Z,0
2017-10-04T00:24:34.040Z,0
2017-10-04T00:25:15.107Z,0
2017-10-04T00:25:55.684Z,0
2017-10-04T00:26:36.267Z,0
2017-10-04T00:27:16.843Z,0
2017-10-04T00:28:17.132Z,0
2017-10-04T00:28:57.704Z,0
2017-10-04T00:29:38.282Z,0
2017-10-04T00:30:18.847Z,0
2017-10-04T00:30:59.411Z,0
2017-10-04T00:31:39.989Z,0
2017-10-04T00:32:20.561Z,0
2017-10-04T00:33:01.139Z,0
2017-10-04T00:33:41.710Z,0
2017-10-04T00:34:22.297Z,0
2017-10-04T00:35:02.855Z,0
2017-10-04T00:35:43.437Z,0
2017-10-04T00:36:24.013Z,0
2017-10-04T00:37:04.594Z,0
2017-10-04T00:37:45.164Z,0
2017-10-04T00:38:25.753Z,0
2017-10-04T00:39:06.335Z,0
2017-10-04T00:39:46.918Z,0
2017-10-04T00:40:27.492Z,0
2017-10-04T00:41:08.073Z,0
2017-10-04T00:41:48.655Z,0
2017-10-04T00:42:29.229Z,0
2017-10-04T00:43:09.801Z,0
2017-10-04T00:43:50.380Z,0
2017-10-04T00:44:30.960Z,0
2017-10-04T00:45:11.547Z,0
2017-10-04T00:45:52.124Z,0
2017-10-04T00:46:32.696Z,0
2017-10-04T00:47:13.273Z,0
2017-10-04T00:47:53.847Z,0
2017-10-04T00:48:34.419Z,0
2017-10-04T00:49:14.991Z,0
2017-10-04T00:49:55.573Z,0
2017-10-04T00:50:36.150Z,0
2017-10-04T00:51:16.727Z,0
2017-10-04T00:51:57.309Z,0
2017-10-04T00:52:37.889Z,0
2017-10-04T00:53:18.460Z,0
2017-10-04T00:53:59.042Z,0
2017-10-04T00:54:39.614Z,0
2017-10-04T00:55:20.191Z,0
2017-10-04T00:56:00.766Z,0
2017-10-04T00:56:41.340Z,0
2017-10-04T00:57:21.925Z,0
2017-10-04T00:58:02.506Z,0
2017-10-04T00:58:43.078Z,0
2017-10-04T00:59:23.649Z,0
2017-10-04T01:00:04.211Z,0
2017-10-04T01:00:44.804Z,0
2017-10-04T01:01:25.365Z,0
2017-10-04T01:02:05.944Z,0
2017-10-04T01:02:46.520Z,0
2017-10-04T01:03:27.107Z,0
2017-10-04T01:04:07.677Z,0
2017-10-04T01:04:48.246Z,0
2017-10-04T01:05:28.831Z,0
2017-10-04T01:06:09.390Z,0
2017-10-04T01:06:49.968Z,0
2017-10-04T01:07:30.535Z,0
2017-10-04T01:08:11.118Z,0
2017-10-04T01:08:51.697Z,0
2017-10-04T01:09:32.269Z,0
2017-10-04T01:10:12.836Z,0
2017-10-04T01:10:53.415Z,0
2017-10-04T01:11:33.980Z,0
2017-10-04T01:12:14.582Z,0
2017-10-04T01:12:55.129Z,0
2017-10-04T01:13:35.713Z,0
2017-10-04T01:14:16.286Z,0
2017-10-04T01:14:56.848Z,0
2017-10-04T01:15:37.435Z,0
2017-10-04T01:16:18.010Z,0
2017-10-04T01:16:58.594Z,0
2017-10-04T01:17:39.168Z,0
2017-10-04T01:18:19.732Z,0
2017-10-04T01:19:00.313Z,0
2017-10-04T01:19:40.880Z,0
2017-10-04T01:20:21.444Z,0
2017-10-04T01:21:02.013Z,0
2017-10-04T01:21:42.591Z,0
2017-10-04T01:22:23.165Z,0
2017-10-04T01:23:03.743Z,0
2017-10-04T01:23:44.324Z,0
2017-10-04T01:24:24.908Z,0
2017-10-04T01:26:42.861Z,0
2017-10-04T01:27:23.418Z,0
2017-10-04T01:28:03.986Z,0
2017-10-04T01:28:44.557Z,0
2017-10-04T01:29:25.155Z,0
2017-10-04T01:30:05.718Z,0
2017-10-04T01:30:46.300Z,0
2017-10-04T01:31:26.877Z,0
2017-10-04T01:32:07.454Z,0
2017-10-04T01:32:48.019Z,0
2017-10-04T01:33:28.594Z,0
2017-10-04T01:34:09.159Z,0
2017-10-04T01:34:49.739Z,0
2017-10-04T01:35:30.303Z,0
2017-10-04T01:36:10.871Z,0
2017-10-04T01:37:06.259Z,0
2017-10-04T01:37:46.820Z,0
2017-10-04T01:38:27.405Z,0
2017-10-04T01:39:07.967Z,0
2017-10-04T01:39:48.552Z,0
2017-10-04T01:40:29.125Z,0
2017-10-04T01:41:09.701Z,0
2017-10-04T01:41:50.263Z,0
2017-10-04T01:42:30.836Z,0
2017-10-04T01:43:11.416Z,0
2017-10-04T01:43:51.998Z,0
2017-10-04T01:44:32.572Z,0
2017-10-04T01:45:13.156Z,0
2017-10-04T01:45:53.737Z,0
2017-10-04T01:46:34.316Z,0
2017-10-04T01:47:14.897Z,0
2017-10-04T01:47:55.471Z,0
2017-10-04T01:48:36.051Z,0
2017-10-04T01:49:16.626Z,0
2017-10-04T01:51:49.841Z,0
2017-10-04T01:52:30.429Z,0
2017-10-04T01:53:10.994Z,0
2017-10-04T01:53:51.566Z,0
2017-10-04T01:54:32.140Z,0
2017-10-04T01:55:12.722Z,0
2017-10-04T01:55:53.301Z,0
2017-10-04T01:56:33.874Z,0
2017-10-04T01:57:14.455Z,0
2017-10-04T01:57:55.031Z,0
2017-10-04T01:58:35.602Z,0
2017-10-04T01:59:16.165Z,0
2017-10-04T01:59:56.738Z,0
2017-10-04T02:00:37.320Z,0
2017-10-04T02:01:17.901Z,0
2017-10-04T02:01:58.476Z,0
2017-10-04T02:02:39.048Z,0
2017-10-04T02:03:19.622Z,0
2017-10-04T02:04:00.184Z,0
2017-10-04T02:04:40.758Z,0
2017-10-04T02:05:21.341Z,0
2017-10-04T02:06:01.921Z,0
2017-10-04T02:06:42.500Z,0
2017-10-04T02:07:23.081Z,0
2017-10-04T02:08:03.659Z,0
2017-10-04T02:08:44.246Z,0
2017-10-04T02:09:24.817Z,0
2017-10-04T02:10:05.396Z,0
2017-10-04T02:10:45.977Z,0
2017-10-04T02:11:26.560Z,0
2017-10-04T02:12:07.136Z,0
2017-10-04T02:12:47.716Z,0
2017-10-04T02:13:28.294Z,0
2017-10-04T02:14:08.875Z,0
2017-10-04T02:14:49.451Z,0
2017-10-04T02:15:30.024Z,0
2017-10-04T02:16:10.613Z,0
2017-10-04T02:16:51.191Z,0
2017-10-04T02:17:31.766Z,0
2017-10-04T02:18:12.350Z,0
2017-10-04T02:18:52.935Z,0
2017-10-04T02:19:33.515Z,0
2017-10-04T02:20:14.084Z,0
2017-10-04T02:20:54.665Z,0
2017-10-04T02:21:35.233Z,0
2017-10-04T02:22:15.825Z,0
2017-10-04T02:22:56.405Z,0
2017-10-04T02:23:36.988Z,0
2017-10-04T02:24:17.556Z,0
2017-10-04T02:24:58.132Z,0
2017-10-04T02:25:38.715Z,0
2017-10-04T02:26:19.291Z,0
2017-10-04T02:26:59.864Z,0
2017-10-04T02:27:40.438Z,0
2017-10-04T02:28:21.013Z,0
2017-10-04T02:29:01.595Z,0
2017-10-04T02:29:42.171Z,0
2017-10-04T02:30:22.753Z,0
2017-10-04T02:31:03.322Z,0
2017-10-04T02:31:43.910Z,0
2017-10-04T02:32:24.487Z,0
2017-10-04T02:33:05.062Z,0
2017-10-04T02:33:45.641Z,0
2017-10-04T02:34:26.216Z,0
2017-10-04T02:35:06.807Z,0
2017-10-04T02:35:47.381Z,0
2017-10-04T02:36:27.963Z,0
2017-10-04T02:37:08.542Z,0
2017-10-04T02:37:49.113Z,0
2017-10-04T02:38:29.698Z,0
2017-10-04T02:39:10.273Z,0
2017-10-04T02:39:50.849Z,0
2017-10-04T02:40:31.426Z,0
2017-10-04T02:41:12.000Z,0
2017-10-04T02:41:52.576Z,0
2017-10-04T02:42:33.155Z,0
2017-10-04T02:43:13.710Z,0
2017-10-04T02:43:54.285Z,0
2017-10-04T02:44:34.866Z,0
2017-10-04T02:45:15.441Z,0
2017-10-04T02:45:56.023Z,0
2017-10-04T02:46:36.603Z,0
2017-10-04T02:47:17.180Z,0
2017-10-04T02:47:57.757Z,0
2017-10-04T02:48:38.346Z,0
2017-10-04T02:49:18.907Z,0
2017-10-04T02:49:59.486Z,0
2017-10-04T02:50:40.067Z,0
2017-10-04T02:51:20.647Z,0
2017-10-04T02:52:01.225Z,0
2017-10-04T02:52:41.805Z,0
2017-10-04T02:53:22.379Z,0
2017-10-04T02:54:02.952Z,0
2017-10-04T02:54:43.526Z,0
2017-10-04T02:55:24.097Z,0
2017-10-04T02:56:04.671Z,0
2017-10-04T02:56:45.261Z,0
2017-10-04T02:57:25.825Z,0
2017-10-04T02:58:06.413Z,0
2017-10-04T02:58:46.993Z,0
2017-10-04T02:59:27.576Z,0
2017-10-04T03:00:08.149Z,0
2017-10-04T03:00:48.723Z,0
2017-10-04T03:01:29.303Z,0
2017-10-04T03:02:09.871Z,0
2017-10-04T03:02:50.468Z,0
2017-10-04T03:03:31.040Z,0
2017-10-04T03:04:11.623Z,0
2017-10-04T03:04:52.200Z,0
2017-10-04T03:05:32.772Z,0
2017-10-04T03:06:13.362Z,0
2017-10-04T03:07:06.660Z,0
2017-10-04T03:07:47.227Z,0
2017-10-04T03:08:27.793Z,0
2017-10-04T03:09:08.362Z,0
2017-10-04T03:09:48.944Z,0
2017-10-04T03:10:29.504Z,0
2017-10-04T03:11:10.068Z,0
2017-10-04T03:11:50.646Z,0
2017-10-04T03:12:31.227Z,0
2017-10-04T03:13:11.814Z,0
2017-10-04T03:14:07.132Z,0
2017-10-04T03:14:47.706Z,0
2017-10-04T03:15:28.282Z,0
2017-10-04T03:16:08.999Z,0
2017-10-04T03:16:49.580Z,0
2017-10-04T03:17:30.165Z,0
2017-10-04T03:18:10.738Z,0
2017-10-04T03:18:51.299Z,0
2017-10-04T03:19:31.875Z,0
2017-10-04T03:20:12.454Z,0
2017-10-04T03:20:53.035Z,0
2017-10-04T03:21:33.618Z,0
2017-10-04T03:22:14.200Z,0
2017-10-04T03:22:54.776Z,0
2017-10-04T03:23:35.353Z,0
2017-10-04T03:24:15.931Z,0
2017-10-04T03:25:11.232Z,0
2017-10-04T03:25:51.802Z,0
2017-10-04T03:26:32.378Z,0
2017-10-04T03:27:12.955Z,0
2017-10-04T03:27:53.520Z,0
2017-10-04T03:28:34.095Z,0
2017-10-04T03:29:14.667Z,0
2017-10-04T03:29:55.243Z,0
2017-10-04T03:30:35.797Z,0
2017-10-04T03:31:16.367Z,0
2017-10-04T03:31:56.945Z,0
2017-10-04T03:32:37.499Z,0
2017-10-04T03:33:18.071Z,0
2017-10-04T03:33:58.658Z,0
2017-10-04T03:34:39.233Z,0
2017-10-04T03:35:19.803Z,0
2017-10-04T03:36:00.372Z,0
2017-10-04T03:36:40.944Z,0
2017-10-04T03:37:21.547Z,0
2017-10-04T03:38:02.108Z,0
2017-10-04T03:38:42.686Z,0
2017-10-04T03:39:23.261Z,0
2017-10-04T03:40:03.855Z,0
2017-10-04T03:40:44.418Z,0
2017-10-04T03:41:24.996Z,0
2017-10-04T03:42:05.590Z,0
2017-10-04T03:44:43.893Z,0
2017-10-04T03:45:24.466Z,0
2017-10-04T03:46:05.029Z,0
2017-10-04T03:46:45.614Z,0
2017-10-04T03:47:26.177Z,0
2017-10-04T03:48:06.767Z,0
2017-10-04T03:48:47.303Z,0
2017-10-04T03:49:27.876Z,0
2017-10-04T03:50:08.447Z,0
2017-10-04T03:50:49.009Z,0
2017-10-04T03:51:29.586Z,0
2017-10-04T03:52:10.158Z,0
2017-10-04T03:52:50.729Z,0
2017-10-04T03:53:46.289Z,0
2017-10-04T03:54:26.868Z,0
2017-10-04T03:55:07.438Z,0
2017-10-04T03:55:48.012Z,0
2017-10-04T03:58:05.955Z,0
2017-10-04T03:58:46.548Z,0
2017-10-04T03:59:27.115Z,0
2017-10-04T04:00:07.690Z,0
2017-10-04T04:00:48.275Z,0
2017-10-04T04:01:28.842Z,0
2017-10-04T04:02:09.423Z,0
2017-10-04T04:02:50.003Z,0
2017-10-04T04:03:30.572Z,0
2017-10-04T04:04:11.148Z,0
2017-10-04T04:04:51.706Z,0
2017-10-04T04:05:32.289Z,0
2017-10-04T04:06:27.644Z,0
2017-10-04T04:07:08.224Z,0
2017-10-04T04:07:48.793Z,0
2017-10-04T04:08:29.374Z,0
2017-10-04T04:09:09.956Z,0
2017-10-04T04:09:50.529Z,0
2017-10-04T04:10:31.099Z,0
2017-10-04T04:11:11.665Z,0
2017-10-04T04:11:52.252Z,0
2017-10-04T04:12:32.833Z,0
2017-10-04T04:13:13.407Z,0
2017-10-04T04:13:53.982Z,0
2017-10-04T04:14:34.560Z,0
2017-10-04T04:15:15.145Z,0
2017-10-04T04:15:55.724Z,0
2017-10-04T04:16:36.301Z,0
2017-10-04T04:17:16.879Z,0
2017-10-04T04:17:57.453Z,0
2017-10-04T04:18:38.034Z,0
2017-10-04T04:19:18.611Z,0
2017-10-04T04:19:59.182Z,0
2017-10-04T04:20:39.767Z,0
2017-10-04T04:21:20.328Z,0
2017-10-04T04:22:00.900Z,0
2017-10-04T04:22:41.473Z,0
2017-10-04T04:23:22.054Z,0
2017-10-04T04:24:02.626Z,0
2017-10-04T04:24:43.203Z,0
2017-10-04T04:25:23.782Z,0
2017-10-04T04:26:04.367Z,0
2017-10-04T04:26:44.943Z,0
2017-10-04T04:27:25.522Z,0
2017-10-04T04:28:06.103Z,0
2017-10-04T04:28:46.679Z,0
2017-10-04T04:29:27.255Z,0
2017-10-04T04:30:07.842Z,0
2017-10-04T04:30:48.420Z,0
2017-10-04T04:31:29.003Z,0
2017-10-04T04:32:09.577Z,0
2017-10-04T04:32:50.160Z,0
2017-10-04T04:33:30.740Z,0
2017-10-04T04:34:11.314Z,0
2017-10-04T04:34:51.905Z,0
2017-10-04T04:35:32.484Z,0
2017-10-04T04:36:13.053Z,0
2017-10-04T04:36:53.629Z,0
2017-10-04T04:37:34.200Z,0
2017-10-04T04:38:14.783Z,0
2017-10-04T04:38:55.360Z,0
2017-10-04T04:39:35.934Z,0
2017-10-04T04:40:16.520Z,0
2017-10-04T04:40:57.091Z,0
2017-10-04T04:41:37.672Z,0
2017-10-04T04:42:18.250Z,0
2017-10-04T04:42:58.830Z,0
2017-10-04T04:43:39.414Z,0
2017-10-04T04:44:19.986Z,0
2017-10-04T04:45:00.564Z,0
2017-10-04T04:45:41.135Z,0
2017-10-04T04:46:21.708Z,0
2017-10-04T04:47:02.282Z,0
2017-10-04T04:47:42.861Z,0
2017-10-04T04:48:23.443Z,0
2017-10-04T04:49:04.010Z,0
2017-10-04T04:49:44.594Z,0
2017-10-04T04:50:25.176Z,0
2017-10-04T04:51:05.749Z,0
2017-10-04T04:51:46.323Z,0
2017-10-04T04:52:26.900Z,0
2017-10-04T04:53:07.475Z,0
2017-10-04T04:53:48.051Z,0
2017-10-04T04:54:28.624Z,0
2017-10-04T04:55:09.197Z,0
2017-10-04T04:55:49.770Z,0
2017-10-04T04:56:30.353Z,0
2017-10-04T04:57:10.928Z,0
2017-10-04T04:57:51.509Z,0
2017-10-04T04:58:32.077Z,0
2017-10-04T04:59:12.661Z,0
2017-10-04T04:59:53.238Z,0
2017-10-04T05:00:33.811Z,0
2017-10-04T05:01:14.395Z,0
2017-10-04T05:01:54.974Z,0
2017-10-04T05:02:35.555Z,0
2017-10-04T05:03:16.123Z,0
2017-10-04T05:03:56.714Z,0
2017-10-04T05:04:37.296Z,0
2017-10-04T05:05:17.876Z,0
2017-10-04T05:05:58.451Z,0
2017-10-04T05:06:39.029Z,0
2017-10-04T05:07:19.595Z,0
2017-10-04T05:08:00.174Z,0
2017-10-04T05:08:40.754Z,0
2017-10-04T05:09:21.330Z,5
2017-10-04T05:10:01.914Z,5
2017-10-04T05:10:42.486Z,5
2017-10-04T05:11:23.067Z,5
2017-10-04T05:12:03.635Z,5
2017-10-04T05:12:44.213Z,5
2017-10-04T05:13:24.792Z,5
2017-10-04T05:14:05.379Z,5
2017-10-04T05:14:45.944Z,10
2017-10-04T05:15:26.521Z,10
2017-10-04T05:16:07.083Z,10
2017-10-04T05:16:47.673Z,10
2017-10-04T05:17:28.246Z,10
2017-10-04T05:18:08.821Z,15
2017-10-04T05:18:49.401Z,15
2017-10-04T05:19:29.977Z,15
2017-10-04T05:20:10.541Z,15
2017-10-04T05:20:51.119Z,15
2017-10-04T05:21:31.697Z,20
2017-10-04T05:22:12.260Z,20
2017-10-04T05:22:52.836Z,20
2017-10-04T05:23:33.417Z,25
2017-10-04T05:24:13.993Z,25
2017-10-04T05:24:54.561Z,25
2017-10-04T05:25:35.126Z,30
2017-10-04T05:26:15.715Z,30
2017-10-04T05:26:56.297Z,35
2017-10-04T05:27:51.638Z,35
2017-10-04T05:28:32.230Z,40
2017-10-04T05:29:12.806Z,40
2017-10-04T05:29:53.381Z,45
2017-10-04T05:30:33.968Z,45
2017-10-04T05:31:14.543Z,50
2017-10-04T05:31:55.124Z,50
2017-10-04T05:32:35.710Z,55
2017-10-04T05:33:16.284Z,55
2017-10-04T05:33:56.867Z,60
2017-10-04T05:34:37.428Z,60
2017-10-04T05:35:18.015Z,60
2017-10-04T05:35:58.599Z,60
2017-10-04T05:36:39.178Z,65
2017-10-04T05:37:19.755Z,65
2017-10-04T05:38:00.335Z,65
2017-10-04T05:38:40.918Z,70
2017-10-04T05:39:21.504Z,70
2017-10-04T05:40:02.077Z,75
2017-10-04T05:40:42.681Z,75
2017-10-04T05:43:20.987Z,90
2017-10-04T05:44:01.570Z,90
2017-10-04T05:44:42.160Z,95
2017-10-04T05:45:22.739Z,100
2017-10-04T05:46:03.306Z,100
2017-10-04T05:46:43.894Z,105
2017-10-04T05:47:24.459Z,110
2017-10-04T05:48:05.035Z,115
2017-10-04T05:48:45.612Z,120
2017-10-04T05:49:26.191Z,120
2017-10-04T05:50:06.770Z,130
2017-10-04T05:52:44.991Z,140
2017-10-04T05:53:25.577Z,130
2017-10-04T05:54:06.158Z,125
2017-10-04T05:54:46.737Z,120
2017-10-04T05:55:27.303Z,125
2017-10-04T05:56:07.903Z,125
2017-10-04T05:56:48.437Z,130
2017-10-04T05:57:28.991Z,135
2017-10-04T05:58:09.525Z,140
2017-10-04T05:58:50.087Z,145
2017-10-04T05:59:30.652Z,150
2017-10-04T06:00:11.217Z,160
2017-10-04T06:00:51.783Z,170
2017-10-04T06:01:32.342Z,170
2017-10-04T06:02:28.654Z,170
2017-10-04T06:03:09.228Z,160
2017-10-04T06:03:49.803Z,160
2017-10-04T06:04:30.366Z,160
2017-10-04T06:05:10.929Z,165
2017-10-04T06:05:51.505Z,165
2017-10-04T06:06:32.082Z,170
2017-10-04T06:07:12.660Z,170
2017-10-04T06:07:53.222Z,175
2017-10-04T06:08:33.785Z,170
2017-10-04T06:09:14.361Z,180
2017-10-04T06:09:54.938Z,185
2017-10-04T06:10:35.514Z,200
2017-10-04T06:11:16.088Z,220
2017-10-04T06:11:56.663Z,205
2017-10-04T06:12:37.220Z,185
2017-10-04T06:13:17.799Z,165
2017-10-04T06:13:58.370Z,160
2017-10-04T06:14:38.943Z,155
2017-10-04T06:15:19.518Z,155
2017-10-04T06:16:00.088Z,155
2017-10-04T06:16:40.661Z,155
2017-10-04T06:17:21.242Z,150
2017-10-04T06:18:01.840Z,145
2017-10-04T06:18:42.377Z,145
2017-10-04T06:19:22.950Z,145
2017-10-04T06:20:03.535Z,155
2017-10-04T06:20:44.101Z,160
2017-10-04T06:21:24.667Z,170
2017-10-04T06:22:05.213Z,180
2017-10-04T06:22:45.779Z,185
2017-10-04T06:23:26.362Z,195
2017-10-04T06:24:06.895Z,205
2017-10-04T06:24:47.448Z,220
2017-10-04T06:25:28.012Z,230
2017-10-04T06:26:08.555Z,240
2017-10-04T06:26:49.125Z,250
2017-10-04T06:27:29.676Z,270
2017-10-04T06:28:10.246Z,285
2017-10-04T06:28:50.796Z,300
2017-10-04T06:31:23.971Z,330
2017-10-04T06:32:04.537Z,325
2017-10-04T06:32:45.132Z,330
2017-10-04T06:33:25.700Z,350
2017-10-04T06:34:06.266Z,355
2017-10-04T06:34:46.846Z,350
2017-10-04T06:35:27.420Z,350
2017-10-04T06:36:07.990Z,345
2017-10-04T06:36:48.553Z,340
2017-10-04T06:37:29.131Z,355
2017-10-04T06:38:16.699Z,345
2017-10-04T06:38:57.258Z,370
2017-10-04T06:39:37.826Z,405
2017-10-04T06:40:18.378Z,415
2017-10-04T06:40:58.942Z,410
2017-10-04T06:41:39.523Z,435
2017-10-04T06:42:20.074Z,450
2017-10-04T06:43:00.623Z,465
2017-10-04T06:43:41.195Z,485
2017-10-04T06:44:21.758Z,500
2017-10-04T06:45:02.343Z,520
2017-10-04T06:45:42.886Z,570
2017-10-04T06:46:23.442Z,620
2017-10-04T06:47:03.997Z,680
2017-10-04T06:47:44.576Z,730
2017-10-04T06:48:25.154Z,880
2017-10-04T06:49:05.732Z,960
2017-10-04T06:49:46.296Z,1190
2017-10-04T06:50:26.893Z,1250
2017-10-04T06:51:07.425Z,1240
2017-10-04T06:51:47.975Z,1405
2017-10-04T06:52:28.562Z,1435
2017-10-04T06:53:09.099Z,1490
2017-10-04T06:53:49.680Z,1540
2017-10-04T06:54:30.227Z,1575
2017-10-04T06:55:10.792Z,1600
2017-10-04T06:55:51.357Z,1595
2017-10-04T06:56:31.927Z,1590
2017-10-04T06:57:12.470Z,1550
2017-10-04T06:57:53.177Z,1515
2017-10-04T06:58:33.742Z,1485
2017-10-04T06:59:14.308Z,1495
2017-10-04T06:59:54.885Z,1525
2017-10-04T07:00:35.435Z,1620
2017-10-04T07:01:15.997Z,1595
2017-10-04T07:01:56.595Z,1625
2017-10-04T07:02:37.139Z,1545
2017-10-04T07:03:17.724Z,1530
2017-10-04T07:03:58.305Z,1435
2017-10-04T07:04:38.887Z,1430
2017-10-04T07:05:19.470Z,1435
2017-10-04T07:06:00.050Z,1395
2017-10-04T07:06:40.623Z,1355
2017-10-04T07:07:21.190Z,1330
2017-10-04T07:08:01.784Z,1340
2017-10-04T07:08:42.358Z,1370
2017-10-04T07:09:22.927Z,1370
2017-10-04T07:10:03.508Z,1450
2017-10-04T07:10:44.088Z,1465
2017-10-04T07:13:02.048Z,1375
2017-10-04T07:13:42.629Z,1395
2017-10-04T07:14:23.196Z,1530
2017-10-04T07:15:03.787Z,1520
2017-10-04T07:15:44.386Z,1375
2017-10-04T07:16:24.953Z,1355
2017-10-04T07:17:05.528Z,1285
2017-10-04T07:17:46.120Z,1175
2017-10-04T07:18:26.702Z,1185
2017-10-04T07:19:07.300Z,1125
2017-10-04T07:19:47.870Z,1025
2017-10-04T07:20:28.456Z,895
2017-10-04T07:21:09.042Z,900
2017-10-04T07:21:49.631Z,905
2017-10-04T07:22:30.199Z,915
2017-10-04T07:23:10.781Z,860
2017-10-04T07:23:51.363Z,870
2017-10-04T07:24:31.935Z,830
2017-10-04T07:25:12.524Z,1025
2017-10-04T07:25:53.112Z,1000
2017-10-04T07:26:33.695Z,940
2017-10-04T07:27:14.279Z,970
2017-10-04T07:27:54.854Z,915
2017-10-04T07:28:35.447Z,1135
2017-10-04T07:29:16.039Z,840
2017-10-04T07:29:57.549Z,905
2017-10-04T07:30:38.133Z,840
2017-10-04T07:31:18.720Z,870
2017-10-04T07:31:59.303Z,890
2017-10-04T07:32:39.909Z,1125
2017-10-04T07:33:20.473Z,1465
2017-10-04T07:34:11.872Z,1515
2017-10-04T07:34:52.441Z,1670
2017-10-04T07:35:33.029Z,1685
2017-10-04T07:36:13.613Z,1600
2017-10-04T07:36:54.194Z,1615
2017-10-04T07:37:34.784Z,1665
2017-10-04T07:38:15.366Z,1500
2017-10-04T07:38:55.942Z,1375
2017-10-04T07:39:36.527Z,1145
2017-10-04T07:40:17.112Z,1125
2017-10-04T07:40:57.702Z,1165
2017-10-04T07:41:38.283Z,1190
2017-10-04T07:42:18.863Z,1140
2017-10-04T07:42:59.452Z,985
2017-10-04T07:43:40.046Z,875
2017-10-04T07:44:20.623Z,800
2017-10-04T07:45:01.211Z,770
2017-10-04T07:45:41.794Z,755
2017-10-04T07:46:22.378Z,750
2017-10-04T07:47:02.966Z,745
2017-10-04T07:47:43.552Z,735
2017-10-04T07:48:24.130Z,730
2017-10-04T07:49:04.721Z,720
2017-10-04T07:49:45.305Z,720
2017-10-04T07:50:25.880Z,705
2017-10-04T07:51:06.464Z,700
2017-10-04T07:51:47.049Z,710
2017-10-04T07:52:27.640Z,715
2017-10-04T07:53:08.230Z,715
2017-10-04T07:53:48.812Z,720
2017-10-04T07:54:29.392Z,725
2017-10-04T07:55:10.813Z,715
2017-10-04T07:55:51.406Z,710
2017-10-04T07:56:31.989Z,700
2017-10-04T07:57:12.572Z,695
2017-10-04T07:57:53.162Z,685
2017-10-04T07:58:33.750Z,680
2017-10-04T08:01:12.048Z,695
2017-10-04T08:01:52.633Z,695
2017-10-04T08:02:33.217Z,710
2017-10-04T08:03:13.789Z,710
2017-10-04T08:03:54.380Z,720
2017-10-04T08:04:34.957Z,735
2017-10-04T08:05:15.540Z,740
2017-10-04T08:05:56.108Z,750
2017-10-04T08:06:36.685Z,755
2017-10-04T08:07:17.273Z,755
2017-10-04T08:07:57.841Z,765
2017-10-04T08:08:38.415Z,785
2017-10-04T08:09:18.995Z,800
2017-10-04T08:09:59.573Z,805
2017-10-04T08:10:40.155Z,820
2017-10-04T08:11:20.732Z,840
2017-10-04T08:12:01.314Z,885
2017-10-04T08:12:41.884Z,915
2017-10-04T08:13:22.461Z,900
2017-10-04T08:14:03.038Z,915
2017-10-04T08:16:31.161Z,925
2017-10-04T08:17:11.739Z,925
2017-10-04T08:17:52.324Z,950
2017-10-04T08:18:32.914Z,950
2017-10-04T08:19:13.490Z,975
2017-10-04T08:19:54.069Z,980
2017-10-04T08:20:34.650Z,955
2017-10-04T08:21:15.236Z,945
2017-10-04T08:21:55.820Z,965
2017-10-04T08:22:36.397Z,995
2017-10-04T08:23:16.967Z,1045
2017-10-04T08:23:57.550Z,1080
2017-10-04T08:24:38.132Z,1135
2017-10-04T08:25:18.716Z,1250
2017-10-04T08:25:59.293Z,1375
2017-10-04T08:26:39.881Z,1470
2017-10-04T08:27:20.460Z,1420
2017-10-04T08:28:01.040Z,1470
2017-10-04T08:28:41.620Z,1435
2017-10-04T08:29:22.198Z,1340
2017-10-04T08:31:40.156Z,1215
2017-10-04T08:32:20.739Z,1235
2017-10-04T08:33:01.337Z,1170
2017-10-04T08:33:41.913Z,1270
2017-10-04T08:34:22.498Z,1310
2017-10-04T08:35:03.077Z,1345
2017-10-04T08:35:43.670Z,1240
2017-10-04T08:36:24.258Z,1200
2017-10-04T08:37:04.817Z,1275
2017-10-04T08:37:45.390Z,1320
2017-10-04T08:38:25.968Z,1315
2017-10-04T08:39:06.540Z,1430
2017-10-04T08:39:47.134Z,1450
2017-10-04T08:40:27.713Z,1315
2017-10-04T08:41:08.298Z,1140
2017-10-04T08:41:48.869Z,1080
2017-10-04T08:44:16.976Z,1495
2017-10-04T08:44:57.576Z,1840
2017-10-04T08:45:38.156Z,2045
2017-10-04T08:46:18.741Z,2285
2017-10-04T08:46:59.322Z,2140
2017-10-04T08:47:39.899Z,2470
2017-10-04T08:48:20.485Z,2360
2017-10-04T08:49:01.056Z,2070
2017-10-04T08:49:41.646Z,1825
2017-10-04T08:50:22.228Z,2185
2017-10-04T08:51:02.807Z,2225
2017-10-04T08:51:43.390Z,2095
2017-10-04T08:52:23.965Z,1585
2017-10-04T08:53:05.143Z,2065
2017-10-04T08:53:45.722Z,2055
2017-10-04T08:54:26.302Z,2350
2017-10-04T08:55:06.887Z,2185
2017-10-04T08:55:47.477Z,1965
2017-10-04T08:56:28.048Z,2150
2017-10-04T08:57:08.637Z,2520
2017-10-04T08:57:49.208Z,2155
2017-10-04T08:58:29.778Z,2180
2017-10-04T08:59:10.358Z,2110
2017-10-04T08:59:50.940Z,2305
2017-10-04T09:00:31.526Z,2265
2017-10-04T09:01:12.108Z,2300
2017-10-04T09:01:52.694Z,2155
2017-10-04T09:02:33.284Z,1640
2017-10-04T09:03:13.864Z,1740
2017-10-04T09:03:54.449Z,1825
2017-10-04T09:04:35.039Z,1930
2017-10-04T09:05:15.620Z,1975
2017-10-04T09:05:56.204Z,2265
2017-10-04T09:08:14.200Z,2825
2017-10-04T09:08:54.782Z,3205
2017-10-04T09:09:35.364Z,3385
2017-10-04T09:10:15.950Z,3315
2017-10-04T09:10:56.533Z,3155
2017-10-04T09:11:37.121Z,2760
2017-10-04T09:12:17.712Z,2715
2017-10-04T09:12:58.313Z,2645
2017-10-04T09:13:38.907Z,2560
2017-10-04T09:14:19.486Z,2255
2017-10-04T09:15:00.073Z,1960
2017-10-04T09:15:40.666Z,2120
2017-10-04T09:16:21.262Z,2050
2017-10-04T09:17:01.844Z,2045
2017-10-04T09:17:42.439Z,2265
2017-10-04T09:18:23.030Z,2290
2017-10-04T09:19:03.622Z,2360
2017-10-04T09:19:44.215Z,2425
2017-10-04T09:20:24.799Z,2310
2017-10-04T09:21:05.393Z,2225
2017-10-04T09:21:45.974Z,2110
2017-10-04T09:22:26.568Z,2020
2017-10-04T09:23:07.157Z,2075
2017-10-04T09:23:47.749Z,1910
2017-10-04T09:24:28.337Z,2075
2017-10-04T09:25:08.930Z,2390
2017-10-04T09:25:49.517Z,2485
2017-10-04T09:26:30.107Z,2505
2017-10-04T09:27:10.695Z,2365
2017-10-04T09:27:51.274Z,2260
2017-10-04T09:28:31.869Z,1785
2017-10-04T09:29:12.462Z,1605
2017-10-04T09:29:53.052Z,1605
2017-10-04T09:30:33.644Z,1740
2017-10-04T09:31:14.233Z,1935
2017-10-04T09:31:54.826Z,2005
2017-10-04T09:34:33.181Z,1575
2017-10-04T09:35:13.767Z,1520
2017-10-04T09:35:54.346Z,1525
2017-10-04T09:36:34.936Z,1340
2017-10-04T09:37:15.518Z,1330
2017-10-04T09:37:56.103Z,1360
2017-10-04T09:38:36.695Z,1400
2017-10-04T09:39:17.278Z,1315
2017-10-04T09:39:57.867Z,1410
2017-10-04T09:40:38.450Z,1515
2017-10-04T09:41:19.046Z,1570
2017-10-04T09:41:59.635Z,1515
2017-10-04T09:42:40.226Z,1520
2017-10-04T09:43:20.811Z,1555
2017-10-04T09:44:01.397Z,1430
2017-10-04T09:44:41.977Z,1470
2017-10-04T09:47:15.196Z,2095
2017-10-04T09:49:33.131Z,2600
2017-10-04T09:50:13.722Z,2710
2017-10-04T09:50:54.303Z,2530
2017-10-04T09:51:34.887Z,2125
2017-10-04T09:52:15.480Z,1480
2017-10-04T09:52:56.070Z,1160
2017-10-04T09:53:36.657Z,1080
2017-10-04T09:54:17.247Z,1110
2017-10-04T09:54:57.828Z,1195
2017-10-04T09:55:38.415Z,1165
2017-10-04T09:56:19.002Z,1315
2017-10-04T09:56:59.588Z,1570
2017-10-04T09:57:40.170Z,2240
2017-10-04T09:58:20.761Z,1810
2017-10-04T09:59:01.352Z,1485
2017-10-04T09:59:41.934Z,2420
2017-10-04T10:00:22.515Z,2775
2017-10-04T10:01:03.094Z,3045
2017-10-04T10:01:58.372Z,3215
2017-10-04T10:02:38.953Z,3095
2017-10-04T10:03:19.543Z,3215
2017-10-04T10:04:00.113Z,3425
2017-10-04T10:04:40.700Z,3405
2017-10-04T10:05:21.286Z,3285
2017-10-04T10:06:01.883Z,3190
2017-10-04T10:06:42.464Z,2990
2017-10-04T10:07:23.044Z,2810
2017-10-04T10:08:03.627Z,2650